createdAt,value
2018-10-07T00:01:14.238Z,13.14
2018-10-07T00:03:43.578Z,13.23
2018-10-07T00:06:14.960Z,13.21
2018-10-07T00:08:43.595Z,13.14
2018-10-07T00:11:13.765Z,13.20
2018-10-07T00:13:43.579Z,13.30
2018-10-07T00:18:57.832Z,13.23
2018-10-07T00:21:25.927Z,13.12
2018-10-07T00:23:54.001Z,13.05
2018-10-07T00:26:22.093Z,12.92
2018-10-07T00:28:50.173Z,12.85
2018-10-07T00:31:18.259Z,12.78
2018-10-07T00:33:46.367Z,12.80
2018-10-07T00:36:14.455Z,12.78
2018-10-07T00:38:42.560Z,12.76
2018-10-07T00:41:10.735Z,12.81
2018-10-07T00:43:38.821Z,12.73
2018-10-07T00:46:06.983Z,12.77
2018-10-07T00:48:35.080Z,12.79
2018-10-07T00:51:03.178Z,12.74
2018-10-07T00:53:31.291Z,12.72
2018-10-07T00:55:59.519Z,12.63
2018-10-07T00:58:27.627Z,12.61
2018-10-07T01:00:56.124Z,12.65
2018-10-07T01:03:24.284Z,12.68
2018-10-07T01:05:52.384Z,12.66
2018-10-07T01:08:20.468Z,12.60
2018-10-07T01:10:48.540Z,12.60
2018-10-07T01:13:16.660Z,12.48
2018-10-07T01:15:44.761Z,12.50
2018-10-07T01:18:12.846Z,12.15
2018-10-07T01:20:40.931Z,12.04
2018-10-07T01:23:09.037Z,12.04
2018-10-07T01:25:37.190Z,12.02
2018-10-07T01:28:05.305Z,12.14
2018-10-07T01:30:33.439Z,12.13
2018-10-07T01:33:01.561Z,12.20
2018-10-07T01:35:29.638Z,12.15
2018-10-07T01:37:57.721Z,12.10
2018-10-07T01:40:25.827Z,12.15
2018-10-07T01:42:53.972Z,12.13
2018-10-07T01:45:22.087Z,12.14
2018-10-07T01:47:50.167Z,12.02
2018-10-07T01:50:18.247Z,11.95
2018-10-07T01:52:46.401Z,11.96
2018-10-07T01:55:14.867Z,12.00
2018-10-07T01:57:42.971Z,12.01
2018-10-07T02:00:11.056Z,12.07
2018-10-07T02:02:39.144Z,12.03
2018-10-07T02:05:07.320Z,12.01
2018-10-07T02:07:35.351Z,12.01
2018-10-07T02:10:03.448Z,11.67
2018-10-07T02:12:31.548Z,11.51
2018-10-07T02:14:59.647Z,11.46
2018-10-07T02:17:27.743Z,11.63
2018-10-07T02:19:55.836Z,11.61
2018-10-07T02:22:23.923Z,11.65
2018-10-07T02:24:52.030Z,11.72
2018-10-07T02:27:20.107Z,11.72
2018-10-07T02:29:48.200Z,11.70
2018-10-07T02:32:16.412Z,11.63
2018-10-07T02:34:44.496Z,11.48
2018-10-07T02:37:12.583Z,11.32
2018-10-07T02:39:40.700Z,11.21
2018-10-07T02:42:08.780Z,11.07
2018-10-07T02:44:36.855Z,11.18
2018-10-07T02:47:04.972Z,11.34
2018-10-07T02:49:33.084Z,11.36
2018-10-07T02:52:01.186Z,11.38
2018-10-07T02:54:29.277Z,11.46
2018-10-07T02:56:57.347Z,11.49
2018-10-07T02:59:25.621Z,11.47
2018-10-07T03:01:53.774Z,11.44
2018-10-07T03:04:21.871Z,11.50
2018-10-07T03:06:49.971Z,11.52
2018-10-07T03:09:18.079Z,11.39
2018-10-07T03:11:46.168Z,11.30
2018-10-07T03:14:14.261Z,11.26
2018-10-07T03:16:42.364Z,11.24
2018-10-07T03:19:10.482Z,11.21
2018-10-07T03:21:38.568Z,11.15
2018-10-07T03:24:06.804Z,11.06
2018-10-07T03:26:34.898Z,11.04
2018-10-07T03:29:02.995Z,11.01
2018-10-07T03:31:31.079Z,10.98
2018-10-07T03:33:59.161Z,11.06
2018-10-07T03:36:27.241Z,11.22
2018-10-07T03:38:55.328Z,11.21
2018-10-07T03:41:23.414Z,11.27
2018-10-07T03:43:51.508Z,11.19
2018-10-07T03:46:19.590Z,11.11
2018-10-07T03:48:47.693Z,11.43
2018-10-07T03:51:15.796Z,11.36
2018-10-07T03:53:43.859Z,11.23
2018-10-07T03:56:11.944Z,11.01
2018-10-07T03:58:40.039Z,10.97
2018-10-07T04:01:08.131Z,10.97
2018-10-07T04:03:36.264Z,10.88
2018-10-07T04:06:04.334Z,10.96
2018-10-07T04:08:32.457Z,11.03
2018-10-07T04:11:00.609Z,10.91
2018-10-07T04:13:28.719Z,11.08
2018-10-07T04:15:56.811Z,11.24
2018-10-07T04:18:24.890Z,11.05
2018-10-07T04:20:53.116Z,11.11
2018-10-07T04:23:21.246Z,11.27
2018-10-07T04:25:49.487Z,11.09
2018-10-07T04:28:17.599Z,11.23
2018-10-07T04:30:45.729Z,11.26
2018-10-07T04:33:13.828Z,11.27
2018-10-07T04:35:41.924Z,11.44
2018-10-07T04:38:10.112Z,11.23
2018-10-07T04:40:38.215Z,11.24
2018-10-07T04:43:06.308Z,11.45
2018-10-07T04:45:34.419Z,11.51
2018-10-07T04:48:02.544Z,11.30
2018-10-07T04:50:30.721Z,11.15
2018-10-07T04:52:58.810Z,11.02
2018-10-07T04:55:26.962Z,11.03
2018-10-07T04:57:55.079Z,10.94
2018-10-07T05:00:23.280Z,11.03
2018-10-07T05:02:51.306Z,11.00
2018-10-07T05:05:19.408Z,11.02
2018-10-07T05:07:47.487Z,11.08
2018-10-07T05:10:57.405Z,11.08
2018-10-07T05:13:26.109Z,11.10
2018-10-07T05:15:55.613Z,10.89
2018-10-07T05:18:24.063Z,10.92
2018-10-07T05:20:52.590Z,10.93
2018-10-07T05:23:20.815Z,10.83
2018-10-07T05:25:48.978Z,10.84
2018-10-07T05:28:17.500Z,10.76
2018-10-07T05:30:45.639Z,10.82
2018-10-07T05:33:13.879Z,10.79
2018-10-07T05:35:42.321Z,10.69
2018-10-07T05:38:10.474Z,10.63
2018-10-07T05:40:38.583Z,10.79
2018-10-07T05:43:06.670Z,10.75
2018-10-07T05:45:34.779Z,10.75
2018-10-07T05:48:02.932Z,10.69
2018-10-07T05:50:31.051Z,10.71
2018-10-07T05:52:59.195Z,10.71
2018-10-07T05:55:27.306Z,10.66
2018-10-07T05:57:57.698Z,10.71
2018-10-07T06:00:27.302Z,10.72
2018-10-07T06:03:15.511Z,10.74
2018-10-07T06:05:43.823Z,10.83
2018-10-07T06:08:12.892Z,10.88
2018-10-07T06:10:41.048Z,10.89
2018-10-07T06:13:09.184Z,10.90
2018-10-07T06:15:38.147Z,10.92
2018-10-07T06:18:06.430Z,11.03
2018-10-07T06:20:34.566Z,11.08
2018-10-07T06:23:02.673Z,11.11
2018-10-07T06:25:30.821Z,11.10
2018-10-07T06:27:58.938Z,11.28
2018-10-07T06:30:27.089Z,11.58
2018-10-07T06:32:55.164Z,11.73
2018-10-07T06:35:24.140Z,11.73
2018-10-07T06:37:52.260Z,11.78
2018-10-07T06:40:20.359Z,11.84
2018-10-07T06:42:48.487Z,11.95
2018-10-07T06:45:16.601Z,12.11
2018-10-07T06:47:44.678Z,12.29
2018-10-07T06:50:12.833Z,12.54
2018-10-07T06:52:40.936Z,12.81
2018-10-07T06:55:09.069Z,13.18
2018-10-07T06:57:37.164Z,13.53
2018-10-07T07:00:05.938Z,13.76
2018-10-07T07:02:34.045Z,13.91
2018-10-07T07:05:02.158Z,14.22
2018-10-07T07:07:30.268Z,14.47
2018-10-07T07:09:58.363Z,14.66
2018-10-07T07:12:26.467Z,14.85
2018-10-07T07:14:54.578Z,15.03
2018-10-07T07:17:22.760Z,15.15
2018-10-07T07:19:51.006Z,15.30
2018-10-07T07:22:19.079Z,15.43
2018-10-07T07:24:47.185Z,15.50
2018-10-07T07:27:15.379Z,15.58
2018-10-07T07:29:43.520Z,15.73
2018-10-07T07:32:11.646Z,15.85
2018-10-07T07:34:39.780Z,15.81
2018-10-07T07:37:07.874Z,15.85
2018-10-07T07:39:35.971Z,15.96
2018-10-07T07:42:04.104Z,16.01
2018-10-07T07:44:32.264Z,16.08
2018-10-07T07:47:00.372Z,16.17
2018-10-07T07:49:28.487Z,16.25
2018-10-07T07:51:56.601Z,16.28
2018-10-07T07:54:24.679Z,16.37
2018-10-07T07:56:52.818Z,16.53
2018-10-07T07:59:20.908Z,16.59
2018-10-07T08:01:49.030Z,16.61
2018-10-07T08:04:17.169Z,16.70
2018-10-07T08:06:45.273Z,16.76
2018-10-07T08:09:13.357Z,16.86
2018-10-07T08:11:41.466Z,16.91
2018-10-07T08:14:09.725Z,16.93
2018-10-07T08:16:37.795Z,17.05
2018-10-07T08:19:05.905Z,17.11
2018-10-07T08:21:34.056Z,17.09
2018-10-07T08:24:02.196Z,17.08
2018-10-07T08:26:30.352Z,17.14
2018-10-07T08:28:58.471Z,17.13
2018-10-07T08:31:26.606Z,17.19
2018-10-07T08:33:54.735Z,17.12
2018-10-07T08:36:22.868Z,17.06
2018-10-07T08:38:51.014Z,17.08
2018-10-07T08:41:19.128Z,17.13
2018-10-07T08:43:47.226Z,17.09
2018-10-07T08:46:15.320Z,17.15
2018-10-07T08:48:43.417Z,17.19
2018-10-07T08:51:11.531Z,17.24
2018-10-07T08:53:39.736Z,17.20
2018-10-07T08:56:07.982Z,17.10
2018-10-07T08:58:35.999Z,17.23
2018-10-07T09:01:04.140Z,17.20
2018-10-07T09:03:32.788Z,17.21
2018-10-07T09:06:00.871Z,17.23
2018-10-07T09:08:28.984Z,17.27
2018-10-07T09:10:57.091Z,17.29
2018-10-07T09:13:25.223Z,17.40
2018-10-07T09:15:53.316Z,17.44
2018-10-07T09:18:21.471Z,17.36
2018-10-07T09:20:49.619Z,17.30
2018-10-07T09:23:17.667Z,17.36
2018-10-07T09:25:45.760Z,17.37
2018-10-07T09:28:13.877Z,17.47
2018-10-07T09:30:41.963Z,17.46
2018-10-07T09:33:10.124Z,17.55
2018-10-07T09:35:38.284Z,17.61
2018-10-07T09:38:06.398Z,17.73
2018-10-07T09:40:34.555Z,17.71
2018-10-07T09:43:02.656Z,17.81
2018-10-07T09:45:30.812Z,17.86
2018-10-07T09:47:59.136Z,17.95
2018-10-07T09:50:27.284Z,18.13
2018-10-07T09:52:55.413Z,18.26
2018-10-07T09:55:23.519Z,18.47
2018-10-07T09:57:51.726Z,18.50
2018-10-07T10:00:24.919Z,18.36
2018-10-07T10:02:53.020Z,18.36
2018-10-07T10:05:21.138Z,18.23
2018-10-07T10:07:49.230Z,18.27
2018-10-07T10:10:17.623Z,18.22
2018-10-07T10:12:46.015Z,18.19
2018-10-07T10:15:14.127Z,18.11
2018-10-07T10:17:46.157Z,18.17
2018-10-07T10:20:14.935Z,18.24
2018-10-07T10:23:04.980Z,18.15
2018-10-07T10:25:40.060Z,18.13
2018-10-07T10:28:17.529Z,18.07
2018-10-07T10:33:03.740Z,18.06
2018-10-07T10:36:41.059Z,18.05
2018-10-07T10:39:18.723Z,18.02
2018-10-07T10:41:59.283Z,18.08
2018-10-07T10:44:40.019Z,18.02
2018-10-07T10:47:12.403Z,17.97
2018-10-07T10:49:53.597Z,17.89
2018-10-07T10:53:43.071Z,17.89
2018-10-07T10:56:31.460Z,17.94
2018-10-07T11:01:15.476Z,17.83
2018-10-07T11:04:00.947Z,17.78
2018-10-07T11:08:47.519Z,17.73
2018-10-07T11:11:23.531Z,17.67
2018-10-07T11:14:03.547Z,17.59
2018-10-07T11:18:49.354Z,17.68
2018-10-07T11:23:29.940Z,17.79
2018-10-07T11:26:03.797Z,17.84
2018-10-07T11:28:40.118Z,17.86
2018-10-07T11:31:14.265Z,17.79
2018-10-07T11:35:58.131Z,17.73
2018-10-07T11:38:34.406Z,17.85
2018-10-07T11:42:10.904Z,18.02
2018-10-07T11:45:16.666Z,18.15
2018-10-07T11:48:04.987Z,17.99
2018-10-07T11:50:41.933Z,18.00
2018-10-07T11:53:23.078Z,18.10
2018-10-07T11:55:51.187Z,18.24
2018-10-07T11:58:19.333Z,18.25
2018-10-07T12:00:47.416Z,18.34
2018-10-07T12:03:15.544Z,18.46
2018-10-07T12:05:43.649Z,18.53
2018-10-07T12:08:11.731Z,18.62
2018-10-07T12:10:39.836Z,18.81
2018-10-07T12:13:07.932Z,18.88
2018-10-07T12:15:36.009Z,18.95
2018-10-07T12:18:04.116Z,19.02
2018-10-07T12:20:32.211Z,19.14
2018-10-07T12:23:00.332Z,19.19
2018-10-07T12:25:28.427Z,19.18
2018-10-07T12:27:56.538Z,19.10
2018-10-07T12:30:24.639Z,19.06
2018-10-07T12:32:52.780Z,18.87
2018-10-07T12:35:20.876Z,18.90
2018-10-07T12:37:48.998Z,18.99
2018-10-07T12:40:17.105Z,18.97
2018-10-07T12:42:45.284Z,18.68
2018-10-07T12:45:13.292Z,18.69
2018-10-07T12:47:41.399Z,18.57
2018-10-07T12:50:09.515Z,18.61
2018-10-07T12:52:38.532Z,18.52
2018-10-07T12:55:06.628Z,18.47
2018-10-07T12:57:34.748Z,18.49
2018-10-07T13:00:02.884Z,18.51
2018-10-07T13:02:31.003Z,18.52
2018-10-07T13:04:59.132Z,18.43
2018-10-07T13:07:27.340Z,18.35
2018-10-07T13:09:55.448Z,18.36
2018-10-07T13:12:23.628Z,18.28
2018-10-07T13:14:51.763Z,18.29
2018-10-07T13:17:19.881Z,18.24
2018-10-07T13:19:48.123Z,18.25
2018-10-07T13:22:16.225Z,18.19
2018-10-07T13:24:44.323Z,18.26
2018-10-07T13:27:12.399Z,18.28
2018-10-07T13:29:40.488Z,18.29
2018-10-07T13:32:08.628Z,18.18
2018-10-07T13:34:36.762Z,18.16
2018-10-07T13:37:04.881Z,18.02
2018-10-07T13:39:33.661Z,17.84
2018-10-07T13:42:01.767Z,17.65
2018-10-07T13:44:29.873Z,17.55
2018-10-07T13:46:57.983Z,17.40
2018-10-07T13:49:26.071Z,17.40
2018-10-07T13:51:54.190Z,17.29
2018-10-07T13:54:22.317Z,17.17
2018-10-07T13:56:50.487Z,17.12
2018-10-07T13:59:18.716Z,17.04
2018-10-07T14:01:46.940Z,17.05
2018-10-07T14:04:15.143Z,16.95
2018-10-07T14:06:43.270Z,16.99
2018-10-07T14:09:11.372Z,16.97
2018-10-07T14:11:39.492Z,16.89
2018-10-07T14:14:07.571Z,16.65
2018-10-07T14:16:35.677Z,16.61
2018-10-07T14:19:03.784Z,16.54
2018-10-07T14:21:31.872Z,16.45
2018-10-07T14:24:00.013Z,16.39
2018-10-07T14:26:28.079Z,16.34
2018-10-07T14:28:56.190Z,16.35
2018-10-07T14:31:24.332Z,16.40
2018-10-07T14:33:52.424Z,16.43
2018-10-07T14:36:20.525Z,16.42
2018-10-07T14:38:48.641Z,16.32
2018-10-07T14:41:16.774Z,16.39
2018-10-07T14:43:44.933Z,16.48
2018-10-07T14:46:13.039Z,16.57
2018-10-07T14:48:41.164Z,16.51
2018-10-07T14:51:09.360Z,16.46
2018-10-07T14:53:37.819Z,16.45
2018-10-07T14:56:05.995Z,16.48
2018-10-07T14:58:34.077Z,16.50
2018-10-07T15:01:02.284Z,16.46
2018-10-07T15:03:30.344Z,16.48
2018-10-07T15:05:58.543Z,16.47
2018-10-07T15:08:27.599Z,16.54
2018-10-07T15:10:55.760Z,16.44
2018-10-07T15:13:23.859Z,16.33
2018-10-07T15:15:51.956Z,16.31
2018-10-07T15:18:20.061Z,16.35
2018-10-07T15:23:22.599Z,16.42
2018-10-07T15:25:50.768Z,16.32
2018-10-07T15:28:18.868Z,16.19
2018-10-07T15:30:47.016Z,16.02
2018-10-07T15:33:15.204Z,15.96
2018-10-07T15:35:43.435Z,15.96
2018-10-07T15:38:11.495Z,15.92
2018-10-07T15:40:39.700Z,15.98
2018-10-07T15:43:07.817Z,15.96
2018-10-07T15:45:35.912Z,15.97
2018-10-07T15:48:04.022Z,15.90
2018-10-07T15:50:32.904Z,15.84
2018-10-07T15:53:00.939Z,15.82
2018-10-07T15:55:29.029Z,15.77
2018-10-07T15:57:57.110Z,15.72
2018-10-07T16:00:25.208Z,15.66
2018-10-07T16:02:53.321Z,15.72
2018-10-07T16:05:21.450Z,15.70
2018-10-07T16:07:49.585Z,15.70
2018-10-07T16:10:17.782Z,15.67
2018-10-07T16:12:45.907Z,15.55
2018-10-07T16:15:13.967Z,15.43
2018-10-07T16:17:42.180Z,15.47
2018-10-07T16:20:10.239Z,15.52
2018-10-07T16:22:38.462Z,15.45
2018-10-07T16:25:06.577Z,15.39
2018-10-07T16:27:34.815Z,15.29
2018-10-07T16:30:03.820Z,15.32
2018-10-07T16:32:31.941Z,15.35
2018-10-07T16:35:00.045Z,15.32
2018-10-07T16:37:28.195Z,15.25
2018-10-07T16:39:56.304Z,15.21
2018-10-07T16:42:24.423Z,15.22
2018-10-07T16:44:52.586Z,15.10
2018-10-07T16:47:20.795Z,15.09
2018-10-07T16:49:48.951Z,15.02
2018-10-07T16:52:17.056Z,15.08
2018-10-07T16:54:45.214Z,15.09
2018-10-07T16:57:13.977Z,15.09
2018-10-07T16:59:44.047Z,14.99
2018-10-07T17:02:13.556Z,14.99
2018-10-07T17:04:43.680Z,14.94
2018-10-07T17:07:13.099Z,14.91
2018-10-07T17:09:53.796Z,14.84
2018-10-07T17:12:22.351Z,14.82
2018-10-07T17:14:55.818Z,14.77
2018-10-07T17:17:26.092Z,14.77
2018-10-07T17:19:54.561Z,14.73
2018-10-07T17:22:24.302Z,14.72
2018-10-07T17:24:53.376Z,14.72
2018-10-07T17:27:23.061Z,14.65
2018-10-07T17:29:54.494Z,14.70
2018-10-07T17:32:28.072Z,14.70
2018-10-07T17:35:08.915Z,14.65
2018-10-07T17:37:45.726Z,14.68
2018-10-07T17:40:14.915Z,14.75
2018-10-07T17:42:46.001Z,14.69
2018-10-07T17:45:23.174Z,14.78
2018-10-07T17:47:53.220Z,14.75
2018-10-07T17:50:24.571Z,14.71
2018-10-07T17:52:54.629Z,14.62
2018-10-07T17:55:28.733Z,14.68
2018-10-07T17:57:57.504Z,14.71
2018-10-07T18:00:31.311Z,14.67
2018-10-07T18:03:00.551Z,14.69
2018-10-07T18:05:30.117Z,14.65
2018-10-07T18:08:00.218Z,14.56
2018-10-07T18:10:29.795Z,14.59
2018-10-07T18:13:00.827Z,14.50
2018-10-07T18:15:42.401Z,14.58
2018-10-07T18:18:14.196Z,14.54
2018-10-07T18:20:45.201Z,14.44
2018-10-07T18:23:15.144Z,14.47
2018-10-07T18:25:43.851Z,14.34
2018-10-07T18:28:12.721Z,14.29
2018-10-07T18:30:42.136Z,14.30
2018-10-07T18:33:17.924Z,14.25
2018-10-07T18:35:55.974Z,14.20
2018-10-07T18:38:29.671Z,14.21
2018-10-07T18:41:06.128Z,14.25
2018-10-07T18:43:39.035Z,14.20
2018-10-07T18:46:12.844Z,14.16
2018-10-07T18:48:47.047Z,14.18
2018-10-07T18:51:50.042Z,14.16
2018-10-07T18:54:24.225Z,14.06
2018-10-07T18:57:09.818Z,14.05
2018-10-07T18:59:40.636Z,14.05
2018-10-07T19:02:12.371Z,14.01
2018-10-07T19:04:44.291Z,14.01
2018-10-07T19:07:23.263Z,13.94
2018-10-07T19:10:02.764Z,14.00
2018-10-07T19:13:01.060Z,13.97
2018-10-07T19:15:35.338Z,13.96
2018-10-07T19:18:08.105Z,13.90
2018-10-07T19:20:47.396Z,13.95
2018-10-07T19:23:16.824Z,13.90
2018-10-07T19:25:49.606Z,13.90
2018-10-07T19:28:30.148Z,13.91
2018-10-07T19:31:09.008Z,13.89
2018-10-07T19:33:39.860Z,13.87
2018-10-07T19:36:09.731Z,13.90
2018-10-07T19:38:42.552Z,13.82
2018-10-07T19:41:11.204Z,13.87
2018-10-07T19:43:46.407Z,13.80
2018-10-07T19:46:21.960Z,13.75
2018-10-07T19:48:54.502Z,13.77
2018-10-07T19:51:25.938Z,13.84
2018-10-07T19:53:59.194Z,13.76
2018-10-07T19:56:28.219Z,13.64
2018-10-07T19:59:00.873Z,13.65
2018-10-07T20:01:37.389Z,13.54
2018-10-07T20:04:12.978Z,13.63
2018-10-07T20:06:42.347Z,13.50
2018-10-07T20:09:12.301Z,13.57
2018-10-07T20:11:43.316Z,13.58
2018-10-07T20:14:13.016Z,13.63
2018-10-07T20:16:41.417Z,13.66
2018-10-07T20:19:17.631Z,13.59
2018-10-07T20:21:57.703Z,13.59
2018-10-07T20:24:28.534Z,13.58
2018-10-07T20:27:00.396Z,13.55
2018-10-07T20:29:31.982Z,13.51
2018-10-07T20:32:02.100Z,13.43
2018-10-07T20:34:41.936Z,13.42
2018-10-07T20:37:20.809Z,13.48
2018-10-07T20:39:51.781Z,13.41
2018-10-07T20:42:26.226Z,13.39
2018-10-07T20:45:04.032Z,13.41
2018-10-07T20:47:42.673Z,13.37
2018-10-07T20:50:31.977Z,13.23
2018-10-07T20:53:02.312Z,13.26
2018-10-07T20:55:33.625Z,13.25
2018-10-07T20:58:06.746Z,13.26
2018-10-07T21:00:40.266Z,13.31
2018-10-07T21:03:19.588Z,13.25
2018-10-07T21:05:52.710Z,13.32
2018-10-07T21:08:24.198Z,13.24
2018-10-07T21:10:55.691Z,13.15
2018-10-07T21:13:26.001Z,13.19
2018-10-07T21:15:56.572Z,13.26
2018-10-07T21:18:29.959Z,13.26
2018-10-07T21:20:59.825Z,13.25
2018-10-07T21:23:37.965Z,13.32
2018-10-07T21:26:13.809Z,13.32
2018-10-07T21:28:46.348Z,13.27
2018-10-07T21:31:18.996Z,13.34
2018-10-07T21:33:51.943Z,13.30
2018-10-07T21:36:22.201Z,13.37
2018-10-07T21:39:01.050Z,13.42
2018-10-07T21:41:33.338Z,13.51
2018-10-07T21:44:06.614Z,13.42
2018-10-07T21:48:13.066Z,13.40
2018-10-07T21:50:49.621Z,13.45
2018-10-07T21:53:19.199Z,13.42
2018-10-07T21:58:32.160Z,13.47
2018-10-07T22:01:03.188Z,13.44
2018-10-07T22:11:43.392Z,13.43
2018-10-07T22:14:13.144Z,13.40
2018-10-07T22:16:51.652Z,13.44
2018-10-07T22:19:20.768Z,13.48
2018-10-07T22:21:52.258Z,13.54
2018-10-07T22:24:25.413Z,13.50
2018-10-07T22:26:56.226Z,13.52
2018-10-07T22:29:26.325Z,13.50
2018-10-07T22:32:18.242Z,13.54
2018-10-07T22:34:51.710Z,13.43
2018-10-07T22:37:24.824Z,13.52
2018-10-07T22:39:55.033Z,13.51
2018-10-07T22:42:28.138Z,13.45
2018-10-07T22:45:01.042Z,13.47
2018-10-07T22:47:31.114Z,13.45
2018-10-07T22:50:03.446Z,13.40
2018-10-07T22:52:32.077Z,13.27
2018-10-07T22:55:02.651Z,13.37
2018-10-07T22:57:35.597Z,13.36
2018-10-07T23:00:05.469Z,13.30
2018-10-07T23:02:34.924Z,13.32
2018-10-07T23:05:05.535Z,13.33
2018-10-07T23:07:33.613Z,13.20
2018-10-07T23:10:01.775Z,13.18
2018-10-07T23:12:29.907Z,13.09
2018-10-07T23:14:58.018Z,13.00
2018-10-07T23:17:26.104Z,12.99
2018-10-07T23:19:54.201Z,12.97
2018-10-07T23:22:22.263Z,12.90
2018-10-07T23:24:50.368Z,12.92
2018-10-07T23:27:18.446Z,12.89
2018-10-07T23:29:46.645Z,12.86
2018-10-07T23:32:14.716Z,12.76
2018-10-07T23:34:42.835Z,12.87
2018-10-07T23:37:10.944Z,12.91
2018-10-07T23:39:39.124Z,12.78
2018-10-07T23:42:07.230Z,12.73
2018-10-07T23:44:35.323Z,12.56
2018-10-07T23:47:03.417Z,12.47
2018-10-07T23:49:31.520Z,12.52
2018-10-07T23:51:59.704Z,12.55
2018-10-07T23:54:27.724Z,12.55
2018-10-07T23:56:55.806Z,12.51
2018-10-07T23:59:23.886Z,12.45
